INFORMACIÓN METAR y TAF
METAR FOR GCRR
ADDS - METARS form results

(0243 UTC 15 August 2020)
Data provider http://aviationweather.gov/metar/data/
 
METAR text: GCRR 150230Z AUTO 03013KT CAVOK 22/17 Q1017
Conditions at: GCRR (ARRECIFE/LANZARO, ES) observed 0230 UTC 15 August 2020
Temperature: 22.0°C (72°F)
Dewpoint: 17.0°C (63°F) [RH = 73%]
Pressure (altimeter): 30.03 inches Hg (1017.0 mb)
Winds: from the NNE (30 degrees) at 15 MPH (13 knots; 6.7 m/s)
Visibility: 6 or more miles (10+ km)
Ceiling: ceiling and visibility are OK
Clouds: unknown
Weather: no significant weather observed at this time

METAR text: GCRR 150200Z AUTO 03012KT CAVOK 22/17 Q1017
Conditions at: GCRR (ARRECIFE/LANZARO, ES) observed 0200 UTC 15 August 2020
Temperature: 22.0°C (72°F)
Dewpoint: 17.0°C (63°F) [RH = 73%]
Pressure (altimeter): 30.03 inches Hg (1017.0 mb)
Winds: from the NNE (30 degrees) at 14 MPH (12 knots; 6.2 m/s)
Visibility: 6 or more miles (10+ km)
Ceiling: ceiling and visibility are OK
Clouds: unknown
Weather: no significant weather observed at this time

Forecast for: GCRR (ARRECIFE/LANZARO, ES)
Text: TAF GCRR 150200Z 1503/1603 02016KT 9999 FEW025 TX29/1514Z TN21/1506Z
Forecast period: 0300 UTC 15 August 2020 to 0300 UTC 16 August 2020
Forecast type: FROM: standard forecast or significant change
Winds: from the NNE (20 degrees) at 18 MPH (16 knots; 8.2 m/s)
Visibility: 6 or more miles (10+ km)
Ceiling: at least 12,000 feet AGL
Clouds: few clouds at 2500 feet AGL
Weather: no significant weather forecast for this period
Text: PROB30
Forecast period: 1100 to 2000 UTC 15 August 2020
Forecast type: TEMPORARY: The following changes expected for less than half the time period
Winds: from the NNE (20 degrees) at 20 MPH (17 knots; 8.7 m/s)
gusting to 34 MPH (30 knots; 15.4 m/s)
Visibility: missing
Ceiling: unknown
Clouds: missing
Weather: no significant weather forecast for this period

MAPA DE AEROPUERTO

INFORMACIÓN DE PISTA
Pista 03 Longitud 7874 ft Ancho 148 ft
Elevación 18 ft Umbral desplazado 0 ft Rumbo de pista 27
Pista 21 Longitud 7874 ft Ancho 148 ft
Elevación 47 ft Umbral desplazado 0 ft Rumbo de pista 207

FRECUANCIAS DEL AEROPUERTO
Tipo APP Nombre CANARIAS A Frecuencia 129.3 MHZ
Tipo ATIS Nombre ATIS Frecuencia 118.625 MHZ
Tipo GND Nombre GND Frecuencia 121.8 MHZ
Tipo TWR Nombre TWR Frecuencia 120.7 MHZ

RADIO AYUDAS DEL AEROPUERTO
Tipo VOR-DME Nombre Lanzarote Frecuencia 113700 KHZ
Tipo NDB Nombre Lanzarote Frecuencia 310 KHZ
Tipo VOR-DME Nombre Lanzarote Frecuencia 115200 KHZ
Tipo TACAN Nombre Lanzarote Frecuencia 114700 KHZ